createdAt,value
2017-10-06T00:00:42.735Z,58.05
2017-10-06T00:01:42.720Z,58.15
2017-10-06T00:02:42.709Z,57.95
2017-10-06T00:03:42.692Z,58.05
2017-10-06T00:04:42.676Z,58.15
2017-10-06T00:05:42.666Z,58.15
2017-10-06T00:06:42.647Z,58.05
2017-10-06T00:07:42.634Z,57.95
2017-10-06T00:08:42.619Z,57.86
2017-10-06T00:09:42.604Z,57.86
2017-10-06T00:10:42.590Z,57.57
2017-10-06T00:11:42.575Z,58.24
2017-10-06T00:12:42.561Z,58.15
2017-10-06T00:13:42.546Z,58.15
2017-10-06T00:14:42.532Z,58.05
2017-10-06T00:15:42.518Z,58.05
2017-10-06T00:16:42.509Z,58.15
2017-10-06T00:17:42.489Z,58.15
2017-10-06T00:18:42.473Z,58.05
2017-10-06T00:19:42.459Z,58.15
2017-10-06T00:20:42.446Z,57.86
2017-10-06T00:21:42.429Z,57.76
2017-10-06T00:22:42.419Z,58.15
2017-10-06T00:23:42.403Z,58.05
2017-10-06T00:24:42.389Z,58.15
2017-10-06T00:25:42.372Z,58.05
2017-10-06T00:26:42.360Z,58.05
2017-10-06T00:27:42.345Z,58.15
2017-10-06T00:28:42.330Z,58.24
2017-10-06T00:29:42.316Z,57.86
2017-10-06T00:30:42.301Z,58.15
2017-10-06T00:31:42.292Z,58.05
2017-10-06T00:32:42.273Z,57.95
2017-10-06T00:33:42.259Z,58.05
2017-10-06T00:34:42.243Z,57.86
2017-10-06T00:35:42.230Z,57.86
2017-10-06T00:36:42.214Z,57.86
2017-10-06T00:37:42.200Z,57.86
2017-10-06T00:38:42.185Z,57.86
2017-10-06T00:39:42.176Z,57.95
2017-10-06T00:40:42.158Z,57.95
2017-10-06T00:41:42.143Z,57.76
2017-10-06T00:42:42.132Z,57.95
2017-10-06T00:43:42.114Z,58.05
2017-10-06T00:44:42.101Z,57.95
2017-10-06T00:45:42.086Z,58.15
2017-10-06T00:46:42.071Z,57.95
2017-10-06T00:47:42.059Z,57.86
2017-10-06T00:48:42.043Z,58.05
2017-10-06T00:49:42.028Z,57.86
2017-10-06T00:50:42.021Z,57.95
2017-10-06T00:51:41.999Z,58.15
2017-10-06T00:52:41.999Z,57.95
2017-10-06T00:53:41.969Z,58.24
2017-10-06T00:54:41.956Z,57.76
2017-10-06T00:55:41.941Z,57.76
2017-10-06T00:56:41.927Z,57.86
2017-10-06T00:57:41.914Z,57.86
2017-10-06T00:58:41.898Z,57.95
2017-10-06T00:59:41.885Z,58.15
2017-10-06T01:00:41.870Z,57.86
2017-10-06T01:01:41.855Z,57.67
2017-10-06T01:02:41.841Z,58.05
2017-10-06T01:03:41.829Z,57.67
2017-10-06T01:04:41.819Z,57.86
2017-10-06T01:05:41.797Z,57.86
2017-10-06T01:06:41.783Z,57.57
2017-10-06T01:07:41.770Z,57.76
2017-10-06T01:08:41.755Z,57.57
2017-10-06T01:09:41.741Z,57.57
2017-10-06T01:10:41.726Z,57.95
2017-10-06T01:11:41.712Z,57.95
2017-10-06T01:12:41.698Z,57.57
2017-10-06T01:13:41.682Z,57.86
2017-10-06T01:14:41.668Z,58.05
2017-10-06T01:15:41.654Z,57.67
2017-10-06T01:16:41.641Z,57.86
2017-10-06T01:17:41.626Z,57.67
2017-10-06T01:18:41.638Z,58.15
2017-10-06T01:19:41.599Z,57.76
2017-10-06T01:20:41.583Z,57.67
2017-10-06T01:21:41.569Z,57.57
2017-10-06T01:22:41.553Z,58.15
2017-10-06T01:23:41.540Z,57.95
2017-10-06T01:24:41.526Z,57.76
2017-10-06T01:25:41.512Z,58.05
2017-10-06T01:26:41.500Z,57.95
2017-10-06T01:27:41.483Z,57.95
2017-10-06T01:28:41.468Z,57.57
2017-10-06T01:29:41.453Z,57.95
2017-10-06T01:30:41.438Z,57.76
2017-10-06T01:31:41.424Z,58.15
2017-10-06T01:32:41.411Z,58.24
2017-10-06T01:33:41.395Z,58.12
2017-10-06T01:34:41.381Z,57.95
2017-10-06T01:35:41.368Z,58.05
2017-10-06T01:36:41.353Z,57.95
2017-10-06T01:37:41.338Z,57.95
2017-10-06T01:38:41.323Z,57.73
2017-10-06T01:39:41.310Z,58.12
2017-10-06T01:40:41.294Z,58.15
2017-10-06T01:41:41.281Z,58.05
2017-10-06T01:42:41.266Z,58.05
2017-10-06T01:43:41.253Z,58.53
2017-10-06T01:44:41.239Z,58.50
2017-10-06T01:45:41.222Z,58.50
2017-10-06T01:46:41.209Z,58.02
2017-10-06T01:47:41.194Z,58.50
2017-10-06T01:48:41.180Z,57.76
2017-10-06T01:49:41.165Z,58.31
2017-10-06T01:50:41.151Z,58.44
2017-10-06T01:51:41.137Z,58.12
2017-10-06T01:52:41.122Z,58.40
2017-10-06T01:53:41.108Z,58.50
2017-10-06T01:54:41.094Z,58.50
2017-10-06T01:55:41.078Z,58.31
2017-10-06T01:56:41.065Z,58.31
2017-10-06T01:57:41.054Z,58.31
2017-10-06T01:58:41.036Z,58.24
2017-10-06T01:59:41.020Z,58.12
2017-10-06T02:00:41.006Z,58.22
2017-10-06T02:01:40.990Z,58.31
2017-10-06T02:02:40.992Z,58.31
2017-10-06T02:03:40.963Z,58.40
2017-10-06T02:04:40.947Z,58.31
2017-10-06T02:05:40.933Z,58.31
2017-10-06T02:06:40.918Z,58.31
2017-10-06T02:07:40.905Z,58.12
2017-10-06T02:08:40.890Z,58.12
2017-10-06T02:09:40.875Z,58.40
2017-10-06T02:10:40.861Z,58.31
2017-10-06T02:11:40.846Z,58.12
2017-10-06T02:12:40.833Z,58.31
2017-10-06T02:13:40.817Z,58.12
2017-10-06T02:14:40.802Z,58.31
2017-10-06T02:15:40.788Z,57.92
2017-10-06T02:16:40.773Z,58.40
2017-10-06T02:17:40.758Z,58.22
2017-10-06T02:18:40.744Z,58.02
2017-10-06T02:19:40.729Z,58.40
2017-10-06T02:20:40.716Z,58.31
2017-10-06T02:21:40.705Z,58.12
2017-10-06T02:22:40.685Z,58.60
2017-10-06T02:23:40.672Z,58.22
2017-10-06T02:24:40.657Z,58.31
2017-10-06T02:25:40.641Z,58.02
2017-10-06T02:26:40.629Z,58.60
2017-10-06T02:27:40.614Z,58.22
2017-10-06T02:28:40.599Z,58.50
2017-10-06T02:29:40.583Z,58.31
2017-10-06T02:30:40.569Z,57.92
2017-10-06T02:31:40.556Z,58.22
2017-10-06T02:32:40.541Z,58.40
2017-10-06T02:33:40.526Z,58.60
2017-10-06T02:34:40.511Z,58.02
2017-10-06T02:35:40.497Z,58.22
2017-10-06T02:36:40.482Z,58.12
2017-10-06T02:37:40.474Z,58.40
2017-10-06T02:38:40.452Z,58.12
2017-10-06T02:39:40.438Z,58.60
2017-10-06T02:40:40.442Z,58.31
2017-10-06T02:41:40.408Z,58.12
2017-10-06T02:42:40.395Z,58.22
2017-10-06T02:43:40.380Z,58.40
2017-10-06T02:44:40.366Z,58.31
2017-10-06T02:45:40.355Z,58.22
2017-10-06T02:46:40.335Z,58.70
2017-10-06T02:47:40.323Z,58.22
2017-10-06T02:48:40.307Z,58.02
2017-10-06T02:49:40.292Z,58.40
2017-10-06T02:50:40.279Z,58.02
2017-10-06T02:51:40.263Z,58.22
2017-10-06T02:52:40.249Z,58.31
2017-10-06T02:53:40.234Z,58.31
2017-10-06T02:54:40.219Z,58.12
2017-10-06T02:55:40.207Z,58.60
2017-10-06T02:56:40.191Z,58.50
2017-10-06T02:57:40.176Z,58.60
2017-10-06T02:58:40.161Z,58.60
2017-10-06T02:59:40.147Z,58.50
2017-10-06T03:00:40.131Z,58.40
2017-10-06T03:01:40.116Z,58.40
2017-10-06T03:02:40.103Z,58.40
2017-10-06T03:03:40.088Z,58.50
2017-10-06T03:04:40.074Z,58.12
2017-10-06T03:05:40.059Z,58.02
2017-10-06T03:06:40.044Z,58.40
2017-10-06T03:07:40.030Z,58.40
2017-10-06T03:08:40.018Z,58.22
2017-10-06T03:09:39.999Z,58.50
2017-10-06T03:10:39.986Z,58.31
2017-10-06T03:11:39.970Z,58.70
2017-10-06T03:12:39.957Z,58.70
2017-10-06T03:13:39.940Z,58.31
2017-10-06T03:14:39.926Z,58.40
2017-10-06T03:15:39.912Z,58.31
2017-10-06T03:16:39.898Z,58.50
2017-10-06T03:17:39.882Z,58.40
2017-10-06T03:18:39.868Z,58.60
2017-10-06T03:19:39.854Z,58.50
2017-10-06T03:20:39.841Z,58.22
2017-10-06T03:21:39.824Z,58.60
2017-10-06T03:22:39.810Z,58.40
2017-10-06T03:23:39.794Z,58.60
2017-10-06T03:24:39.783Z,58.22
2017-10-06T03:25:39.765Z,58.70
2017-10-06T03:26:39.753Z,58.50
2017-10-06T03:27:39.737Z,58.60
2017-10-06T03:28:39.723Z,58.79
2017-10-06T03:29:39.707Z,58.60
2017-10-06T03:30:39.694Z,58.60
2017-10-06T03:31:39.679Z,58.50
2017-10-06T03:32:39.665Z,58.31
2017-10-06T03:33:39.648Z,58.22
2017-10-06T03:34:39.635Z,58.31
2017-10-06T03:35:39.621Z,58.70
2017-10-06T03:36:39.607Z,58.50
2017-10-06T03:37:39.590Z,58.79
2017-10-06T03:38:39.576Z,58.60
2017-10-06T03:39:39.565Z,58.50
2017-10-06T03:40:39.554Z,58.50
2017-10-06T03:41:39.532Z,58.50
2017-10-06T03:42:39.537Z,58.60
2017-10-06T03:43:39.502Z,58.22
2017-10-06T03:44:39.489Z,58.50
2017-10-06T03:45:39.474Z,58.50
2017-10-06T03:46:39.458Z,58.60
2017-10-06T03:47:39.445Z,58.50
2017-10-06T03:48:39.433Z,58.60
2017-10-06T03:49:39.415Z,58.60
2017-10-06T03:50:39.401Z,58.60
2017-10-06T03:51:39.385Z,58.50
2017-10-06T03:52:39.371Z,58.50
2017-10-06T03:53:39.355Z,58.50
2017-10-06T03:54:39.342Z,58.50
2017-10-06T03:55:39.327Z,58.60
2017-10-06T03:56:39.312Z,58.60
2017-10-06T03:57:39.301Z,58.60
2017-10-06T03:58:39.284Z,58.31
2017-10-06T03:59:39.267Z,58.60
2017-10-06T04:00:39.254Z,58.50
2017-10-06T04:01:39.239Z,58.79
2017-10-06T04:02:39.225Z,58.60
2017-10-06T04:03:39.209Z,58.60
2017-10-06T04:04:39.194Z,58.40
2017-10-06T04:05:39.180Z,58.60
2017-10-06T04:06:39.165Z,58.50
2017-10-06T04:07:39.152Z,58.40
2017-10-06T04:08:39.136Z,58.31
2017-10-06T04:09:39.122Z,58.70
2017-10-06T04:10:39.106Z,58.70
2017-10-06T04:11:39.091Z,58.50
2017-10-06T04:12:39.079Z,58.22
2017-10-06T04:13:39.062Z,58.70
2017-10-06T04:14:39.048Z,58.40
2017-10-06T04:15:39.033Z,58.60
2017-10-06T04:16:39.025Z,58.31
2017-10-06T04:17:39.005Z,58.60
2017-10-06T04:18:38.989Z,58.22
2017-10-06T04:19:38.974Z,58.22
2017-10-06T04:20:38.961Z,58.22
2017-10-06T04:21:38.945Z,58.70
2017-10-06T04:22:38.931Z,58.60
2017-10-06T04:23:38.916Z,58.22
2017-10-06T04:24:38.900Z,58.60
2017-10-06T04:25:38.886Z,58.60
2017-10-06T04:26:38.871Z,58.70
2017-10-06T04:27:38.856Z,58.40
2017-10-06T04:28:38.843Z,58.70
2017-10-06T04:29:38.827Z,58.89
2017-10-06T04:30:38.813Z,59.56
2017-10-06T04:31:38.799Z,59.66
2017-10-06T04:32:38.785Z,59.27
2017-10-06T04:33:38.769Z,59.08
2017-10-06T04:34:38.753Z,58.79
2017-10-06T04:35:38.739Z,59.08
2017-10-06T04:36:38.724Z,58.98
2017-10-06T04:37:38.709Z,59.17
2017-10-06T04:38:38.695Z,59.08
2017-10-06T04:39:38.680Z,59.01
2017-10-06T04:40:38.666Z,58.79
2017-10-06T04:41:38.651Z,59.17
2017-10-06T04:42:38.636Z,59.20
2017-10-06T04:43:38.621Z,59.17
2017-10-06T04:44:38.608Z,58.89
2017-10-06T04:45:38.592Z,58.79
2017-10-06T04:46:38.578Z,58.79
2017-10-06T04:47:38.565Z,58.79
2017-10-06T04:48:38.549Z,58.79
2017-10-06T04:49:38.533Z,58.79
2017-10-06T04:50:38.520Z,58.89
2017-10-06T04:51:38.504Z,58.79
2017-10-06T04:52:38.490Z,58.98
2017-10-06T04:53:38.475Z,59.30
2017-10-06T04:54:38.461Z,59.11
2017-10-06T04:55:38.446Z,58.53
2017-10-06T04:56:38.433Z,58.34
2017-10-06T04:57:38.415Z,58.24
2017-10-06T04:58:38.402Z,58.34
2017-10-06T04:59:38.387Z,58.34
2017-10-06T05:00:38.373Z,58.34
2017-10-06T05:01:38.358Z,58.24
2017-10-06T05:02:38.343Z,58.53
2017-10-06T05:03:38.330Z,58.15
2017-10-06T05:04:38.315Z,58.15
2017-10-06T05:05:38.298Z,58.15
2017-10-06T05:06:38.287Z,57.86
2017-10-06T05:07:38.270Z,58.05
2017-10-06T05:08:38.255Z,58.15
2017-10-06T05:09:38.241Z,58.05
2017-10-06T05:10:38.227Z,57.57
2017-10-06T05:11:38.212Z,57.37
2017-10-06T05:12:38.198Z,57.37
2017-10-06T05:13:38.182Z,57.28
2017-10-06T05:14:38.169Z,57.67
2017-10-06T05:15:38.156Z,57.57
2017-10-06T05:16:38.139Z,57.67
2017-10-06T05:17:38.123Z,57.76
2017-10-06T05:18:38.115Z,57.18
2017-10-06T05:19:38.096Z,57.18
2017-10-06T05:20:38.082Z,57.47
2017-10-06T05:21:38.066Z,57.57
2017-10-06T05:22:38.052Z,57.09
2017-10-06T05:23:38.038Z,56.90
2017-10-06T05:24:38.023Z,56.90
2017-10-06T05:25:38.009Z,56.99
2017-10-06T05:26:37.994Z,56.80
2017-10-06T05:27:37.983Z,56.70
2017-10-06T05:28:37.966Z,56.70
2017-10-06T05:29:37.950Z,56.90
2017-10-06T05:30:37.938Z,56.51
2017-10-06T05:31:37.921Z,56.90
2017-10-06T05:32:37.906Z,56.73
2017-10-06T05:33:37.892Z,56.73
2017-10-06T05:34:37.878Z,56.60
2017-10-06T05:35:37.862Z,56.90
2017-10-06T05:36:37.850Z,56.51
2017-10-06T05:37:37.832Z,56.03
2017-10-06T05:38:37.818Z,56.73
2017-10-06T05:39:37.804Z,56.32
2017-10-06T05:40:37.791Z,56.32
2017-10-06T05:41:37.777Z,56.41
2017-10-06T05:42:37.761Z,56.44
2017-10-06T05:43:37.747Z,56.63
2017-10-06T05:44:37.733Z,56.51
2017-10-06T05:45:37.718Z,56.80
2017-10-06T05:46:37.702Z,56.12
2017-10-06T05:47:37.688Z,55.74
2017-10-06T05:48:37.675Z,55.83
2017-10-06T05:49:37.661Z,56.03
2017-10-06T05:50:37.645Z,55.83
2017-10-06T05:51:37.632Z,55.83
2017-10-06T05:52:37.617Z,56.12
2017-10-06T05:53:37.607Z,55.74
2017-10-06T05:54:37.587Z,55.93
2017-10-06T05:55:37.574Z,55.83
2017-10-06T05:56:37.559Z,55.93
2017-10-06T05:57:37.543Z,55.83
2017-10-06T05:58:37.529Z,55.83
2017-10-06T05:59:37.514Z,55.65
2017-10-06T06:00:37.501Z,56.05
2017-10-06T06:01:37.486Z,55.83
2017-10-06T06:02:37.472Z,55.74
2017-10-06T06:03:37.458Z,55.93
2017-10-06T06:04:37.442Z,56.35
2017-10-06T06:05:37.428Z,56.51
2017-10-06T06:06:37.413Z,56.60
2017-10-06T06:07:37.398Z,56.32
2017-10-06T06:08:37.387Z,56.44
2017-10-06T06:09:37.373Z,56.44
2017-10-06T06:10:37.356Z,56.41
2017-10-06T06:11:37.346Z,56.63
2017-10-06T06:12:37.326Z,56.44
2017-10-06T06:13:37.312Z,56.73
2017-10-06T06:14:37.298Z,56.25
2017-10-06T06:15:37.283Z,56.35
2017-10-06T06:16:37.268Z,56.32
2017-10-06T06:17:37.253Z,56.32
2017-10-06T06:18:37.247Z,56.22
2017-10-06T06:19:37.225Z,55.96
2017-10-06T06:20:37.212Z,55.57
2017-10-06T06:21:37.196Z,55.93
2017-10-06T06:22:37.181Z,55.55
2017-10-06T06:23:37.167Z,56.03
2017-10-06T06:24:37.153Z,55.83
2017-10-06T06:25:37.137Z,55.93
2017-10-06T06:26:37.124Z,55.83
2017-10-06T06:27:37.108Z,55.83
2017-10-06T06:28:37.095Z,55.93
2017-10-06T06:29:37.080Z,56.03
2017-10-06T06:30:37.066Z,56.03
2017-10-06T06:31:37.053Z,55.16
2017-10-06T06:32:37.038Z,55.65
2017-10-06T06:33:37.023Z,55.09
2017-10-06T06:34:37.007Z,54.97
2017-10-06T06:35:36.993Z,55.38
2017-10-06T06:36:36.979Z,54.97
2017-10-06T06:37:36.965Z,55.26
2017-10-06T06:38:36.949Z,55.16
2017-10-06T06:39:36.935Z,55.07
2017-10-06T06:40:36.921Z,55.35
2017-10-06T06:41:36.906Z,55.19
2017-10-06T06:42:36.891Z,55.07
2017-10-06T06:43:36.877Z,54.61
2017-10-06T06:44:36.863Z,54.71
2017-10-06T06:45:36.849Z,54.80
2017-10-06T06:46:36.833Z,54.61
2017-10-06T06:47:36.819Z,54.90
2017-10-06T06:48:36.806Z,54.90
2017-10-06T06:49:36.791Z,54.80
2017-10-06T06:50:36.776Z,54.87
2017-10-06T06:51:36.761Z,54.49
2017-10-06T06:52:36.751Z,54.42
2017-10-06T06:53:36.732Z,54.87
2017-10-06T06:54:36.718Z,54.87
2017-10-06T06:55:36.705Z,54.78
2017-10-06T06:56:36.690Z,54.32
2017-10-06T06:57:36.674Z,54.42
2017-10-06T06:58:36.660Z,54.71
2017-10-06T06:59:36.646Z,54.52
2017-10-06T07:00:36.632Z,54.32
2017-10-06T07:01:36.617Z,54.30
2017-10-06T07:02:36.603Z,54.10
2017-10-06T07:03:36.588Z,54.20
2017-10-06T07:04:36.582Z,54.58
2017-10-06T07:05:36.558Z,54.49
2017-10-06T07:06:36.544Z,54.30
2017-10-06T07:07:36.530Z,54.20
2017-10-06T07:08:36.515Z,54.20
2017-10-06T07:09:36.502Z,54.20
2017-10-06T07:10:36.487Z,54.00
2017-10-06T07:11:36.472Z,53.43
2017-10-06T07:12:36.458Z,53.53
2017-10-06T07:13:36.443Z,53.55
2017-10-06T07:14:36.428Z,53.81
2017-10-06T07:15:36.415Z,53.36
2017-10-06T07:16:36.401Z,53.27
2017-10-06T07:17:36.385Z,53.36
2017-10-06T07:18:36.372Z,53.07
2017-10-06T07:19:36.356Z,52.87
2017-10-06T07:20:36.342Z,52.49
2017-10-06T07:21:36.328Z,52.59
2017-10-06T07:22:36.313Z,52.40
2017-10-06T07:23:36.304Z,52.40
2017-10-06T07:24:36.285Z,52.78
2017-10-06T07:25:36.271Z,52.85
2017-10-06T07:26:36.257Z,52.47
2017-10-06T07:27:36.243Z,52.49
2017-10-06T07:28:36.227Z,52.75
2017-10-06T07:29:36.214Z,52.59
2017-10-06T07:30:36.199Z,52.78
2017-10-06T07:31:36.186Z,52.69
2017-10-06T07:32:36.170Z,52.47
2017-10-06T07:33:36.155Z,52.56
2017-10-06T07:34:36.142Z,52.49
2017-10-06T07:35:36.128Z,52.40
2017-10-06T07:36:36.114Z,52.37
2017-10-06T07:37:36.098Z,52.37
2017-10-06T07:38:36.084Z,52.37
2017-10-06T07:39:36.070Z,52.37
2017-10-06T07:40:36.056Z,52.47
2017-10-06T07:41:36.042Z,52.08
2017-10-06T07:42:36.025Z,52.37
2017-10-06T07:43:36.012Z,52.37
2017-10-06T07:44:35.997Z,52.37
2017-10-06T07:45:35.983Z,52.47
2017-10-06T07:46:35.969Z,52.08
2017-10-06T07:47:35.955Z,52.27
2017-10-06T07:48:35.940Z,52.56
2017-10-06T07:49:35.925Z,52.56
2017-10-06T07:50:35.910Z,52.37
2017-10-06T07:51:35.902Z,52.47
2017-10-06T07:52:35.882Z,52.47
2017-10-06T07:53:35.866Z,52.47
2017-10-06T07:54:35.853Z,52.47
2017-10-06T07:55:35.838Z,52.56
2017-10-06T07:56:35.825Z,52.37
2017-10-06T07:57:35.832Z,52.47
2017-10-06T07:58:35.798Z,52.56
2017-10-06T07:59:35.785Z,52.08
2017-10-06T08:00:35.765Z,52.08
2017-10-06T08:01:35.752Z,52.37
2017-10-06T08:02:35.737Z,52.37
2017-10-06T08:03:35.724Z,52.27
2017-10-06T08:04:35.708Z,52.37
2017-10-06T08:05:35.693Z,52.18
2017-10-06T08:06:35.680Z,52.27
2017-10-06T08:07:35.664Z,52.47
2017-10-06T08:08:35.651Z,52.47
2017-10-06T08:09:35.636Z,52.37
2017-10-06T08:10:35.621Z,52.37
2017-10-06T08:11:35.608Z,52.56
2017-10-06T08:12:35.592Z,52.47
2017-10-06T08:13:35.579Z,52.34
2017-10-06T08:14:35.564Z,52.56
2017-10-06T08:15:35.548Z,52.47
2017-10-06T08:16:35.535Z,52.54
2017-10-06T08:17:35.518Z,52.47
2017-10-06T08:18:35.506Z,52.75
2017-10-06T08:19:35.491Z,52.66
2017-10-06T08:20:35.476Z,52.56
2017-10-06T08:21:35.460Z,52.56
2017-10-06T08:22:35.447Z,53.33
2017-10-06T08:23:35.432Z,52.75
2017-10-06T08:24:35.418Z,53.23
2017-10-06T08:25:35.403Z,53.05
2017-10-06T08:26:35.389Z,52.95
2017-10-06T08:27:35.374Z,52.75
2017-10-06T08:28:35.359Z,52.95
2017-10-06T08:29:35.344Z,53.14
2017-10-06T08:30:35.330Z,52.75
2017-10-06T08:31:35.316Z,52.66
2017-10-06T08:32:35.300Z,52.75
2017-10-06T08:33:35.286Z,52.56
2017-10-06T08:34:35.271Z,52.56
2017-10-06T08:35:35.261Z,52.56
2017-10-06T08:36:35.243Z,52.37
2017-10-06T08:37:35.227Z,52.47
2017-10-06T08:38:35.365Z,52.47
2017-10-06T08:39:35.198Z,52.59
2017-10-06T08:40:35.186Z,52.59
2017-10-06T08:41:35.171Z,52.69
2017-10-06T08:42:35.155Z,52.30
2017-10-06T08:43:35.142Z,51.92
2017-10-06T08:44:35.126Z,52.11
2017-10-06T08:45:35.110Z,51.05
2017-10-06T08:46:35.097Z,50.30
2017-10-06T08:47:35.103Z,50.88
2017-10-06T08:48:35.069Z,50.88
2017-10-06T08:49:35.054Z,50.40
2017-10-06T08:50:35.040Z,50.49
2017-10-06T08:51:35.025Z,50.40
2017-10-06T08:52:35.011Z,50.49
2017-10-06T08:53:34.996Z,50.21
2017-10-06T08:54:34.981Z,50.30
2017-10-06T08:55:34.973Z,50.01
2017-10-06T08:56:34.954Z,49.82
2017-10-06T08:57:34.937Z,50.01
2017-10-06T08:58:34.924Z,50.11
2017-10-06T08:59:34.909Z,49.73
2017-10-06T09:00:34.896Z,50.01
2017-10-06T09:01:34.882Z,49.84
2017-10-06T09:02:34.866Z,49.65
2017-10-06T09:03:34.852Z,49.75
2017-10-06T09:04:34.839Z,49.55
2017-10-06T09:05:34.825Z,50.04
2017-10-06T09:06:34.810Z,49.53
2017-10-06T09:07:34.796Z,49.65
2017-10-06T09:08:34.783Z,49.53
2017-10-06T09:09:34.769Z,49.65
2017-10-06T09:10:34.754Z,49.84
2017-10-06T09:11:34.739Z,49.94
2017-10-06T09:12:34.727Z,49.46
2017-10-06T09:13:34.711Z,49.37
2017-10-06T09:14:34.697Z,49.37
2017-10-06T09:15:34.683Z,49.07
2017-10-06T09:16:34.670Z,48.71
2017-10-06T09:17:34.655Z,48.03
2017-10-06T09:18:34.641Z,47.77
2017-10-06T09:19:34.627Z,47.00
2017-10-06T09:20:34.614Z,47.09
2017-10-06T09:21:34.600Z,47.55
2017-10-06T09:22:34.585Z,47.94
2017-10-06T09:23:34.571Z,48.21
2017-10-06T09:24:34.559Z,48.49
2017-10-06T09:25:34.545Z,48.79
2017-10-06T09:26:34.531Z,49.27
2017-10-06T09:27:34.516Z,49.37
2017-10-06T09:28:34.503Z,49.27
2017-10-06T09:29:34.489Z,48.79
2017-10-06T09:30:34.476Z,48.79
2017-10-06T09:31:34.462Z,48.88
2017-10-06T09:32:34.447Z,49.27
2017-10-06T09:33:34.432Z,49.17
2017-10-06T09:34:34.421Z,48.79
2017-10-06T09:35:34.405Z,48.81
2017-10-06T09:36:34.393Z,48.61
2017-10-06T09:37:34.378Z,48.33
2017-10-06T09:38:34.364Z,47.45
2017-10-06T09:39:35.752Z,47.00
2017-10-06T09:40:34.338Z,47.45
2017-10-06T09:41:34.322Z,48.03
2017-10-06T09:42:34.308Z,48.13
2017-10-06T09:43:34.295Z,48.69
2017-10-06T09:44:34.282Z,48.88
2017-10-06T09:45:34.267Z,48.69
2017-10-06T09:46:34.254Z,48.69
2017-10-06T09:47:34.240Z,48.59
2017-10-06T09:48:34.227Z,48.59
2017-10-06T09:49:34.213Z,48.97
2017-10-06T09:50:34.198Z,48.79
2017-10-06T09:51:34.186Z,49.46
2017-10-06T09:52:34.173Z,49.94
2017-10-06T09:53:34.158Z,49.17
2017-10-06T09:54:34.144Z,49.75
2017-10-06T09:55:34.130Z,49.55
2017-10-06T09:56:34.116Z,49.65
2017-10-06T09:57:34.103Z,49.75
2017-10-06T09:58:34.088Z,49.75
2017-10-06T09:59:34.075Z,49.65
2017-10-06T10:00:34.061Z,49.07
2017-10-06T10:01:34.046Z,49.65
2017-10-06T10:02:34.033Z,49.65
2017-10-06T10:03:34.019Z,49.75
2017-10-06T10:04:34.007Z,49.65
2017-10-06T10:05:33.992Z,49.24
2017-10-06T10:06:33.977Z,49.84
2017-10-06T10:07:33.964Z,49.75
2017-10-06T10:08:33.949Z,49.53
2017-10-06T10:09:33.936Z,49.82
2017-10-06T10:10:33.922Z,49.82
2017-10-06T10:11:33.908Z,49.91
2017-10-06T10:12:33.895Z,49.82
2017-10-06T10:13:33.880Z,49.82
2017-10-06T10:14:33.867Z,49.73
2017-10-06T10:15:33.852Z,49.82
2017-10-06T10:16:33.838Z,49.82
2017-10-06T10:17:33.823Z,49.82
2017-10-06T10:18:33.810Z,49.82
2017-10-06T10:19:33.796Z,49.63
2017-10-06T10:20:33.781Z,50.11
2017-10-06T10:21:33.768Z,49.82
2017-10-06T10:22:33.753Z,49.73
2017-10-06T10:23:33.739Z,50.11
2017-10-06T10:24:33.726Z,49.63
2017-10-06T10:25:33.712Z,49.82
2017-10-06T10:26:33.697Z,49.73
2017-10-06T10:27:33.683Z,50.01
2017-10-06T10:28:33.670Z,50.40
2017-10-06T10:29:33.655Z,50.01
2017-10-06T10:30:33.641Z,50.11
2017-10-06T10:31:33.627Z,50.78
2017-10-06T10:32:33.617Z,50.69
2017-10-06T10:33:33.598Z,49.91
2017-10-06T10:34:33.584Z,49.07
2017-10-06T10:35:33.571Z,49.94
2017-10-06T10:36:33.556Z,48.90
2017-10-06T10:37:33.541Z,47.96
2017-10-06T10:38:33.533Z,47.48
2017-10-06T10:39:33.514Z,47.65
2017-10-06T10:40:35.955Z,48.06
2017-10-06T10:41:33.486Z,47.29
2017-10-06T10:42:33.472Z,47.38
2017-10-06T10:43:33.460Z,47.00
2017-10-06T10:44:33.446Z,46.73
2017-10-06T10:45:33.433Z,46.34
2017-10-06T10:46:33.419Z,46.27
2017-10-06T10:47:33.410Z,46.08
2017-10-06T10:48:33.393Z,46.30
2017-10-06T10:49:33.382Z,45.33
2017-10-06T10:50:33.366Z,45.04
2017-10-06T10:51:33.354Z,44.77
2017-10-06T10:52:33.342Z,43.90
2017-10-06T10:53:33.328Z,43.90
2017-10-06T10:54:33.317Z,44.09
2017-10-06T10:55:33.304Z,44.75
2017-10-06T10:56:33.292Z,45.69
2017-10-06T10:57:33.278Z,46.54
2017-10-06T10:58:33.267Z,46.44
2017-10-06T10:59:33.254Z,47.31
2017-10-06T11:00:33.243Z,47.48
2017-10-06T11:01:33.229Z,47.87
2017-10-06T11:02:33.216Z,48.06
2017-10-06T11:03:33.206Z,48.25
2017-10-06T11:04:33.193Z,47.87
2017-10-06T11:05:33.179Z,47.96
2017-10-06T11:06:33.168Z,47.96
2017-10-06T11:07:33.155Z,48.06
2017-10-06T11:08:33.142Z,48.18
2017-10-06T11:09:33.129Z,47.50
2017-10-06T11:10:33.117Z,47.12
2017-10-06T11:11:33.104Z,46.64
2017-10-06T11:12:33.092Z,46.81
2017-10-06T11:13:33.077Z,47.19
2017-10-06T11:14:33.069Z,47.38
2017-10-06T11:15:33.053Z,47.48
2017-10-06T11:16:33.041Z,47.29
2017-10-06T11:17:33.026Z,47.09
2017-10-06T11:18:33.013Z,47.00
2017-10-06T11:19:33.002Z,47.00
2017-10-06T11:20:32.989Z,46.90
2017-10-06T11:21:32.975Z,47.09
2017-10-06T11:22:32.962Z,46.64
2017-10-06T11:23:32.949Z,46.37
2017-10-06T11:24:32.937Z,45.33
2017-10-06T11:25:32.922Z,45.04
2017-10-06T11:26:32.910Z,44.46
2017-10-06T11:27:32.897Z,44.19
2017-10-06T11:28:32.885Z,43.61
2017-10-06T11:29:32.872Z,43.80
2017-10-06T11:30:32.859Z,43.61
2017-10-06T11:31:32.847Z,43.71
2017-10-06T11:32:32.835Z,43.61
2017-10-06T11:33:32.822Z,43.15
2017-10-06T11:34:32.810Z,42.88
2017-10-06T11:35:32.797Z,42.22
2017-10-06T11:36:32.785Z,41.91
2017-10-06T11:37:32.772Z,42.57
2017-10-06T11:38:32.760Z,42.66
2017-10-06T11:39:32.748Z,42.40
2017-10-06T11:40:32.736Z,41.83
2017-10-06T11:41:32.723Z,41.35
2017-10-06T11:42:32.712Z,40.89
2017-10-06T11:43:32.700Z,40.31
2017-10-06T11:44:32.689Z,40.40
2017-10-06T11:45:32.677Z,40.50
2017-10-06T11:46:32.668Z,39.94
2017-10-06T11:47:32.655Z,39.18
2017-10-06T11:48:32.644Z,38.70
2017-10-06T11:49:32.633Z,38.60
2017-10-06T11:50:32.622Z,38.42
2017-10-06T11:51:32.611Z,37.84
2017-10-06T11:52:32.601Z,36.97
2017-10-06T11:53:32.590Z,37.47
2017-10-06T11:54:32.584Z,37.66
2017-10-06T11:55:32.568Z,37.08
2017-10-06T11:56:32.559Z,36.99
2017-10-06T11:57:32.548Z,36.52
2017-10-06T11:58:32.538Z,36.69
2017-10-06T11:59:32.527Z,36.42
2017-10-06T12:00:32.519Z,36.13
2017-10-06T12:01:32.507Z,35.84
2017-10-06T12:02:32.497Z,35.94
2017-10-06T12:03:32.487Z,35.74
2017-10-06T12:04:32.478Z,35.55
2017-10-06T12:05:32.467Z,35.57
2017-10-06T12:06:32.458Z,35.35
2017-10-06T12:07:32.448Z,35.27
2017-10-06T12:08:32.440Z,35.08
2017-10-06T12:09:32.429Z,35.16
2017-10-06T12:10:32.420Z,35.55
2017-10-06T12:11:32.414Z,36.04
2017-10-06T12:12:32.400Z,35.55
2017-10-06T12:13:32.391Z,35.61
2017-10-06T12:14:32.382Z,37.51
2017-10-06T12:15:32.372Z,37.34
2017-10-06T12:16:32.362Z,36.83
2017-10-06T12:17:32.351Z,38.68
2017-10-06T12:18:32.342Z,38.56
2017-10-06T12:19:32.355Z,38.85
2017-10-06T12:20:32.324Z,38.19
2017-10-06T12:21:32.313Z,37.45
2017-10-06T12:22:32.302Z,37.41
2017-10-06T12:23:32.292Z,38.37
2017-10-06T12:24:32.283Z,38.83
2017-10-06T12:25:32.273Z,39.88
2017-10-06T12:26:32.263Z,40.34
2017-10-06T12:27:32.253Z,40.34
2017-10-06T12:28:32.244Z,41.39
2017-10-06T12:29:32.235Z,41.48
2017-10-06T12:30:32.221Z,41.77
2017-10-06T12:31:32.210Z,41.97
2017-10-06T12:32:32.200Z,42.16
2017-10-06T12:33:32.189Z,42.08
2017-10-06T12:34:32.179Z,41.14
2017-10-06T12:35:32.167Z,40.96
2017-10-06T12:36:32.156Z,40.00
2017-10-06T12:37:32.146Z,40.00
2017-10-06T12:38:32.135Z,39.24
2017-10-06T12:39:32.124Z,39.14
2017-10-06T12:40:32.113Z,39.14
2017-10-06T12:41:32.100Z,39.14
2017-10-06T12:42:32.090Z,39.04
2017-10-06T12:43:32.079Z,38.95
2017-10-06T12:44:32.069Z,38.78
2017-10-06T12:45:32.058Z,38.58
2017-10-06T12:46:32.049Z,38.09
2017-10-06T12:47:32.037Z,38.09
2017-10-06T12:48:32.027Z,38.19
2017-10-06T12:49:32.016Z,38.48
2017-10-06T12:50:32.005Z,38.66
2017-10-06T12:51:31.996Z,38.56
2017-10-06T12:52:31.985Z,38.85